createdAt,value
2017-09-01T00:01:39.434Z,76.60
2017-09-01T00:04:09.913Z,76.90
2017-09-01T00:06:41.621Z,77.30
2017-09-01T00:09:12.385Z,77.30
2017-09-01T00:11:43.435Z,77.20
2017-09-01T00:14:13.973Z,77.20
2017-09-01T00:16:45.220Z,77.20
2017-09-01T00:19:16.696Z,76.70
2017-09-01T00:21:47.717Z,76.70
2017-09-01T00:24:19.692Z,76.70
2017-09-01T00:26:50.895Z,76.70
2017-09-01T00:29:21.919Z,77.00
2017-09-01T00:31:53.221Z,77.00
2017-09-01T00:34:25.130Z,76.60
2017-09-01T00:36:56.251Z,76.40
2017-09-01T00:39:26.569Z,76.70
2017-09-01T00:41:56.975Z,76.60
2017-09-01T00:44:27.699Z,76.40
2017-09-01T00:47:05.728Z,76.20
2017-09-01T00:49:36.284Z,76.20
2017-09-01T00:52:06.919Z,76.30
2017-09-01T00:54:39.097Z,76.30
2017-09-01T00:57:10.592Z,76.40
2017-09-01T00:59:41.558Z,76.50
2017-09-01T01:02:12.475Z,76.60
2017-09-01T01:04:43.380Z,76.90
2017-09-01T01:07:16.462Z,76.70
2017-09-01T01:09:47.513Z,76.90
2017-09-01T01:12:18.275Z,77.00
2017-09-01T01:14:49.315Z,78.00
2017-09-01T01:17:19.790Z,77.70
2017-09-01T01:19:50.382Z,77.60
2017-09-01T01:22:21.269Z,77.80
2017-09-01T01:24:52.585Z,77.60
2017-09-01T01:27:23.625Z,77.40
2017-09-01T01:29:54.235Z,77.30
2017-09-01T01:32:25.422Z,77.20
2017-09-01T01:50:07.241Z,77.10
2017-09-01T01:52:38.387Z,77.20
2017-09-01T01:55:09.164Z,77.10
2017-09-01T01:57:40.395Z,77.00
2017-09-01T02:00:11.509Z,77.10
2017-09-01T02:02:42.627Z,77.00
2017-09-01T02:05:13.654Z,76.90
2017-09-01T02:07:45.119Z,76.90
2017-09-01T02:10:15.829Z,76.90
2017-09-01T02:12:46.776Z,77.00
2017-09-01T02:15:18.722Z,77.00
2017-09-01T02:17:49.889Z,77.00
2017-09-01T02:20:21.134Z,76.90
2017-09-01T02:22:52.584Z,77.00
2017-09-01T02:25:23.664Z,76.90
2017-09-01T02:27:54.667Z,77.00
2017-09-01T02:30:25.283Z,77.70
2017-09-01T02:32:57.101Z,77.70
2017-09-01T02:35:28.912Z,77.90
2017-09-01T02:38:00.828Z,77.80
2017-09-01T02:40:32.266Z,77.70
2017-09-01T02:43:03.797Z,77.60
2017-09-01T02:45:34.750Z,78.50
2017-09-01T02:48:06.260Z,78.30
2017-09-01T02:50:37.364Z,78.20
2017-09-01T02:53:08.405Z,77.90
2017-09-01T02:55:40.077Z,78.00
2017-09-01T02:58:11.379Z,77.70
2017-09-01T03:00:42.200Z,78.40
2017-09-01T03:03:13.442Z,78.00
2017-09-01T03:05:44.525Z,78.20
2017-09-01T03:08:16.079Z,78.10
2017-09-01T03:10:47.491Z,78.30
2017-09-01T03:13:18.518Z,78.00
2017-09-01T03:15:49.712Z,78.00
2017-09-01T03:18:21.153Z,77.90
2017-09-01T03:20:51.892Z,77.80
2017-09-01T03:23:22.829Z,78.20
2017-09-01T03:25:53.679Z,78.20
2017-09-01T03:28:25.182Z,78.30
2017-09-01T03:30:56.106Z,78.30
2017-09-01T03:33:27.256Z,78.10
2017-09-01T03:35:58.144Z,78.00
2017-09-01T03:38:29.241Z,78.90
2017-09-01T03:40:59.971Z,78.20
2017-09-01T03:43:31.202Z,78.10
2017-09-01T03:46:02.500Z,78.00
2017-09-01T03:48:33.879Z,77.90
2017-09-01T03:51:04.773Z,77.80
2017-09-01T03:53:35.859Z,78.90
2017-09-01T03:56:06.584Z,78.10
2017-09-01T03:58:38.053Z,78.00
2017-09-01T04:01:08.789Z,78.10
2017-09-01T04:03:41.023Z,77.80
2017-09-01T04:06:12.016Z,78.30
2017-09-01T04:08:43.344Z,78.30
2017-09-01T04:11:14.640Z,78.40
2017-09-01T04:13:46.457Z,78.80
2017-09-01T04:16:17.304Z,78.70
2017-09-01T04:18:49.052Z,78.60
2017-09-01T04:21:20.609Z,78.50
2017-09-01T04:23:51.744Z,78.40
2017-09-01T04:26:26.933Z,78.80
2017-09-01T04:29:01.857Z,78.40
2017-09-01T04:31:37.985Z,78.40
2017-09-01T04:34:09.982Z,78.40
2017-09-01T04:36:40.753Z,78.50
2017-09-01T04:39:12.133Z,78.40
2017-09-01T04:41:50.777Z,78.40
2017-09-01T04:44:22.090Z,78.40
2017-09-01T04:46:53.094Z,78.20
2017-09-01T04:49:29.486Z,78.30
2017-09-01T04:52:01.118Z,78.50
2017-09-01T04:54:31.877Z,78.50
2017-09-01T04:57:02.856Z,78.80
2017-09-01T04:59:34.006Z,79.10
2017-09-01T05:02:04.619Z,79.10
2017-09-01T05:04:36.195Z,78.80
2017-09-01T05:07:07.365Z,78.70
2017-09-01T05:09:38.383Z,78.30
2017-09-01T05:12:08.883Z,78.50
2017-09-01T05:14:39.719Z,78.70
2017-09-01T05:17:10.579Z,79.10
2017-09-01T05:19:41.866Z,79.00
2017-09-01T05:22:14.860Z,79.30
2017-09-01T05:24:50.883Z,79.40
2017-09-01T05:27:21.904Z,79.90
2017-09-01T05:29:55.656Z,80.10
2017-09-01T05:32:26.572Z,80.10
2017-09-01T05:34:57.176Z,80.30
2017-09-01T05:37:28.389Z,80.70
2017-09-01T05:39:59.510Z,81.30
2017-09-01T05:42:30.125Z,81.60
2017-09-01T05:45:00.790Z,81.40
2017-09-01T05:47:31.907Z,81.30
2017-09-01T05:50:03.018Z,81.90
2017-09-01T05:52:34.016Z,82.50
2017-09-01T05:55:05.077Z,83.40
2017-09-01T05:57:36.221Z,83.20
2017-09-01T06:00:07.562Z,84.00
2017-09-01T06:02:38.527Z,85.10
2017-09-01T06:05:10.635Z,85.60
2017-09-01T06:07:41.415Z,84.80
2017-09-01T06:10:12.071Z,84.40
2017-09-01T06:12:43.332Z,84.60
2017-09-01T06:15:15.337Z,84.80
2017-09-01T06:17:46.954Z,85.30
2017-09-01T06:20:18.047Z,84.70
2017-09-01T06:22:49.409Z,83.40
2017-09-01T06:25:20.451Z,84.70
2017-09-01T06:27:51.702Z,85.10
2017-09-01T06:30:23.683Z,85.20
2017-09-01T06:32:54.999Z,84.20
2017-09-01T06:35:26.381Z,83.00
2017-09-01T06:37:57.732Z,83.90
2017-09-01T06:40:29.484Z,84.40
2017-09-01T06:43:00.345Z,85.20
2017-09-01T06:45:31.415Z,88.60
2017-09-01T06:48:02.884Z,90.00
2017-09-01T06:50:34.877Z,89.10
2017-09-01T06:53:05.674Z,88.00
2017-09-01T06:55:36.504Z,85.30
2017-09-01T06:58:08.057Z,83.60
2017-09-01T07:00:38.691Z,83.50
2017-09-01T07:03:09.350Z,82.70
2017-09-01T07:05:40.265Z,81.10
2017-09-01T07:08:11.651Z,79.30
2017-09-01T07:10:44.130Z,79.40
2017-09-01T07:13:14.978Z,80.10
2017-09-01T07:15:45.666Z,82.10
2017-09-01T07:18:24.094Z,78.40
2017-09-01T07:20:55.803Z,79.10
2017-09-01T07:23:26.703Z,81.10
2017-09-01T07:25:57.178Z,82.00
2017-09-01T07:28:27.883Z,80.80
2017-09-01T07:30:58.576Z,78.50
2017-09-01T07:33:29.254Z,79.40
2017-09-01T07:36:05.469Z,75.70
2017-09-01T07:38:36.676Z,74.60
2017-09-01T07:41:07.285Z,70.90
2017-09-01T07:43:37.935Z,71.10
2017-09-01T07:46:08.534Z,67.40
2017-09-01T07:48:38.951Z,66.60
2017-09-01T07:51:11.409Z,70.80
2017-09-01T07:53:42.400Z,70.00
2017-09-01T07:56:13.206Z,69.00
2017-09-01T07:58:44.142Z,69.50
2017-09-01T08:01:14.853Z,70.20
2017-09-01T08:03:45.340Z,69.80
2017-09-01T08:06:16.757Z,66.10
2017-09-01T08:08:47.295Z,66.10
2017-09-01T08:11:17.845Z,68.20
2017-09-01T08:13:48.731Z,64.70
2017-09-01T08:16:21.379Z,64.30
2017-09-01T08:18:52.110Z,61.80
2017-09-01T08:21:22.774Z,58.30
2017-09-01T08:23:53.361Z,58.10
2017-09-01T08:26:24.121Z,59.40
2017-09-01T08:28:55.109Z,57.30
2017-09-01T08:31:25.583Z,53.90
2017-09-01T08:33:56.196Z,56.40
2017-09-01T08:36:26.716Z,57.70
2017-09-01T08:38:57.442Z,57.80
2017-09-01T08:41:28.030Z,57.30
2017-09-01T08:43:58.498Z,56.20
2017-09-01T08:46:29.997Z,54.80
2017-09-01T08:49:00.547Z,54.80
2017-09-01T08:51:31.866Z,53.80
2017-09-01T08:54:02.387Z,53.70
2017-09-01T08:56:33.037Z,54.40
2017-09-01T08:59:03.625Z,55.60
2017-09-01T09:01:34.536Z,56.70
2017-09-01T09:04:05.954Z,54.10
2017-09-01T09:06:36.543Z,53.90
2017-09-01T09:09:07.110Z,55.40
2017-09-01T09:11:37.601Z,54.20
2017-09-01T09:14:08.240Z,54.40
2017-09-01T09:16:39.136Z,56.80
2017-09-01T09:19:09.637Z,58.20
2017-09-01T09:21:40.502Z,60.00
2017-09-01T09:24:11.377Z,62.10
2017-09-01T09:26:42.346Z,61.60
2017-09-01T09:29:13.031Z,59.20
2017-09-01T09:31:43.924Z,61.40
2017-09-01T09:34:14.800Z,64.00
2017-09-01T09:36:46.155Z,65.70
2017-09-01T09:39:16.766Z,65.70
2017-09-01T09:41:47.635Z,64.50
2017-09-01T09:44:18.319Z,64.60
2017-09-01T09:46:48.826Z,63.60
2017-09-01T09:49:19.369Z,66.10
2017-09-01T09:51:50.022Z,65.80
2017-09-01T09:54:20.776Z,66.10
2017-09-01T09:56:51.366Z,65.80
2017-09-01T09:59:21.936Z,66.60
2017-09-01T10:01:52.568Z,67.30
2017-09-01T10:04:23.178Z,66.90
2017-09-01T10:06:53.681Z,66.90
2017-09-01T10:09:24.557Z,67.40
2017-09-01T10:11:55.084Z,67.60
2017-09-01T10:14:25.697Z,67.00
2017-09-01T10:16:56.355Z,65.20
2017-09-01T10:19:27.251Z,64.10
2017-09-01T10:21:57.698Z,65.80
2017-09-01T10:24:28.241Z,63.70
2017-09-01T10:26:58.865Z,64.60
2017-09-01T10:29:30.125Z,60.90
2017-09-01T10:32:00.731Z,60.80
2017-09-01T10:34:31.634Z,63.40
2017-09-01T10:37:02.165Z,61.20
2017-09-01T10:39:32.627Z,59.70
2017-09-01T10:42:03.314Z,59.70
2017-09-01T10:44:33.886Z,59.80
2017-09-01T10:47:04.493Z,58.10
2017-09-01T10:49:44.178Z,58.20
2017-09-01T10:54:27.211Z,59.40
2017-09-01T10:59:06.338Z,59.30
2017-09-01T11:01:36.987Z,55.40
2017-09-01T11:04:07.554Z,55.70
2017-09-01T11:06:38.719Z,56.60
2017-09-01T11:09:09.306Z,57.80
2017-09-01T11:11:40.075Z,56.90
2017-09-01T11:14:10.966Z,56.60
2017-09-01T11:16:41.538Z,56.90
2017-09-01T11:19:17.047Z,57.10
2017-09-01T11:23:58.538Z,57.40
2017-09-01T11:26:29.181Z,56.60
2017-09-01T11:29:01.912Z,58.00
2017-09-01T11:31:32.702Z,57.90
2017-09-01T11:34:03.281Z,57.20
2017-09-01T11:36:33.747Z,57.20
2017-09-01T11:39:05.794Z,56.50
2017-09-01T11:41:36.407Z,57.90
2017-09-01T11:44:08.102Z,57.90
2017-09-01T11:46:38.611Z,57.30
2017-09-01T11:49:09.547Z,57.60
2017-09-01T11:51:40.668Z,58.60
2017-09-01T11:54:12.334Z,58.90
2017-09-01T11:56:44.029Z,56.40
2017-09-01T11:59:15.119Z,56.40
2017-09-01T12:01:46.545Z,59.50
2017-09-01T12:04:18.251Z,60.30
2017-09-01T12:06:48.885Z,60.30
2017-09-01T12:09:19.782Z,55.60
2017-09-01T12:11:50.270Z,53.80
2017-09-01T12:14:22.661Z,53.70
2017-09-01T12:16:54.277Z,56.50
2017-09-01T12:19:26.445Z,56.70
2017-09-01T12:21:57.087Z,53.40
2017-09-01T12:24:27.559Z,53.00
2017-09-01T12:27:02.143Z,54.50
2017-09-01T12:29:36.968Z,53.10
2017-09-01T12:32:07.616Z,51.80
2017-09-01T12:34:38.542Z,52.00
2017-09-01T12:37:09.962Z,51.70
2017-09-01T12:39:41.309Z,47.80
2017-09-01T12:42:11.942Z,50.70
2017-09-01T12:44:42.787Z,50.70
2017-09-01T12:47:14.452Z,52.00
2017-09-01T12:49:46.350Z,51.40
2017-09-01T12:52:16.890Z,51.60
2017-09-01T12:54:47.568Z,50.60
2017-09-01T12:57:19.189Z,51.80
2017-09-01T12:59:50.169Z,52.50
2017-09-01T13:02:20.756Z,54.20
2017-09-01T13:04:51.629Z,55.30
2017-09-01T13:07:28.073Z,55.60
2017-09-01T13:10:04.694Z,54.10
2017-09-01T13:12:41.587Z,55.80
2017-09-01T13:15:12.983Z,56.10
2017-09-01T13:17:50.390Z,57.20
2017-09-01T13:20:30.845Z,58.80
2017-09-01T13:23:03.359Z,59.40
2017-09-01T13:25:34.279Z,58.90
2017-09-01T13:28:05.222Z,60.30
2017-09-01T13:30:38.001Z,60.50
2017-09-01T13:33:08.978Z,60.20
2017-09-01T13:35:39.861Z,59.40
2017-09-01T13:38:11.554Z,60.20
2017-09-01T13:40:43.700Z,60.20
2017-09-01T13:43:17.374Z,59.50
2017-09-01T13:45:48.091Z,59.90
2017-09-01T13:48:19.048Z,59.80
2017-09-01T13:50:50.945Z,61.10
2017-09-01T13:53:22.006Z,60.20
2017-09-01T13:55:52.792Z,59.50
2017-09-01T13:58:23.658Z,60.70
2017-09-01T14:00:54.474Z,59.70
2017-09-01T14:03:25.833Z,57.20
2017-09-01T14:05:56.534Z,57.20
2017-09-01T14:08:27.743Z,55.90
2017-09-01T14:10:58.674Z,59.40
2017-09-01T14:13:29.283Z,56.80
2017-09-01T14:16:00.405Z,58.20
2017-09-01T14:18:31.032Z,58.60
2017-09-01T14:21:01.878Z,56.20
2017-09-01T14:23:32.524Z,55.30
2017-09-01T14:26:03.356Z,55.10
2017-09-01T14:28:33.932Z,56.80
2017-09-01T14:31:04.819Z,54.40
2017-09-01T14:33:37.832Z,55.40
2017-09-01T14:36:08.454Z,53.70
2017-09-01T14:38:39.319Z,50.50
2017-09-01T14:41:09.913Z,51.60
2017-09-01T14:43:40.553Z,53.10
2017-09-01T14:46:11.094Z,50.00
2017-09-01T14:48:42.318Z,50.70
2017-09-01T14:51:13.627Z,50.80
2017-09-01T14:53:44.299Z,47.80
2017-09-01T14:56:15.264Z,48.60
2017-09-01T14:58:46.612Z,50.40
2017-09-01T15:01:18.020Z,51.30
2017-09-01T15:03:48.881Z,51.30
2017-09-01T15:06:19.779Z,50.20
2017-09-01T15:08:50.510Z,50.60
2017-09-01T15:11:21.078Z,48.40
2017-09-01T15:13:51.742Z,49.00
2017-09-01T15:16:22.342Z,52.20
2017-09-01T15:18:53.333Z,53.30
2017-09-01T15:21:24.239Z,54.00
2017-09-01T15:23:57.817Z,52.70
2017-09-01T15:26:28.710Z,52.60
2017-09-01T15:28:59.418Z,52.30
2017-09-01T15:31:31.013Z,51.60
2017-09-01T15:34:01.734Z,52.60
2017-09-01T15:36:32.626Z,52.20
2017-09-01T15:39:03.207Z,52.30
2017-09-01T15:41:33.674Z,51.80
2017-09-01T15:44:04.258Z,52.80
2017-09-01T15:46:35.285Z,52.90
2017-09-01T15:49:05.944Z,52.90
2017-09-01T15:51:37.063Z,53.60
2017-09-01T15:54:09.034Z,53.70
2017-09-01T15:56:39.587Z,53.70
2017-09-01T15:59:10.401Z,53.40
2017-09-01T16:01:42.443Z,54.60
2017-09-01T16:04:12.983Z,54.60
2017-09-01T16:06:43.922Z,54.30
2017-09-01T16:09:16.368Z,54.70
2017-09-01T16:11:47.641Z,53.90
2017-09-01T16:14:19.096Z,52.50
2017-09-01T16:16:49.656Z,52.00
2017-09-01T16:19:20.427Z,53.50
2017-09-01T16:21:59.076Z,54.60
2017-09-01T16:24:33.697Z,55.40
2017-09-01T16:27:05.519Z,55.00
2017-09-01T16:29:37.001Z,56.20
2017-09-01T16:32:07.618Z,57.00
2017-09-01T16:34:38.394Z,57.60
2017-09-01T16:37:09.960Z,57.00
2017-09-01T16:39:40.442Z,57.00
2017-09-01T16:42:11.166Z,57.30
2017-09-01T16:44:42.622Z,57.30
2017-09-01T16:47:13.445Z,57.70
2017-09-01T16:49:44.034Z,57.80
2017-09-01T16:52:14.854Z,58.40
2017-09-01T16:54:46.569Z,58.20
2017-09-01T16:57:17.374Z,58.20
2017-09-01T16:59:48.138Z,59.70
2017-09-01T17:02:18.971Z,61.50
2017-09-01T17:04:49.563Z,62.50
2017-09-01T17:07:27.725Z,64.10
2017-09-01T17:10:00.232Z,64.40
2017-09-01T17:12:31.057Z,66.70
2017-09-01T17:15:01.683Z,67.00
2017-09-01T17:17:33.324Z,66.80
2017-09-01T17:20:04.392Z,66.70
2017-09-01T17:22:35.538Z,66.30
2017-09-01T17:25:07.242Z,66.10
2017-09-01T17:27:38.977Z,66.10
2017-09-01T17:30:09.807Z,66.70
2017-09-01T17:32:40.426Z,66.80
2017-09-01T17:35:11.377Z,68.40
2017-09-01T17:37:42.359Z,68.80
2017-09-01T17:40:13.205Z,69.00
2017-09-01T17:42:43.881Z,69.40
2017-09-01T17:45:15.402Z,68.70
2017-09-01T17:47:48.447Z,68.70
2017-09-01T17:50:23.276Z,69.80
2017-09-01T17:52:59.859Z,68.60
2017-09-01T17:55:54.553Z,69.30
2017-09-01T17:58:33.119Z,70.40
2017-09-01T18:01:07.011Z,70.40
2017-09-01T18:03:38.479Z,70.50
2017-09-01T18:06:09.118Z,70.50
2017-09-01T18:08:39.712Z,70.60
2017-09-01T18:11:10.236Z,70.70
2017-09-01T18:13:41.818Z,71.50
2017-09-01T18:16:12.721Z,71.70
2017-09-01T18:18:44.149Z,71.50
2017-09-01T18:21:15.927Z,71.70
2017-09-01T18:23:46.744Z,71.70
2017-09-01T18:26:18.497Z,71.10
2017-09-01T18:28:52.240Z,70.90
2017-09-01T18:31:23.766Z,70.60
2017-09-01T18:33:55.532Z,69.80
2017-09-01T18:36:30.804Z,69.10
2017-09-01T18:39:02.464Z,69.00
2017-09-01T18:41:33.043Z,68.80
2017-09-01T18:44:04.869Z,68.80
2017-09-01T18:46:36.342Z,68.90
2017-09-01T18:49:12.874Z,68.80
2017-09-01T18:51:43.641Z,68.80
2017-09-01T18:54:14.457Z,69.10
2017-09-01T18:56:45.398Z,69.10
2017-09-01T18:59:16.030Z,69.10
2017-09-01T19:01:46.541Z,69.00
2017-09-01T19:04:18.541Z,69.10
2017-09-01T19:06:51.370Z,70.30
2017-09-01T19:09:22.389Z,69.60
2017-09-01T19:11:52.938Z,69.70
2017-09-01T19:14:23.682Z,70.00
2017-09-01T19:16:54.314Z,70.00
2017-09-01T19:19:25.028Z,70.10
2017-09-01T19:21:56.606Z,70.70
2017-09-01T19:24:27.080Z,70.70
2017-09-01T19:26:57.781Z,70.70
2017-09-01T19:29:34.159Z,70.90
2017-09-01T19:32:13.615Z,71.90
2017-09-01T19:34:44.655Z,71.90
2017-09-01T19:37:15.536Z,71.80
2017-09-01T19:39:46.636Z,72.20
2017-09-01T19:42:17.403Z,71.90
2017-09-01T19:44:49.403Z,71.50
2017-09-01T19:47:20.375Z,71.50
2017-09-01T19:49:51.389Z,71.30
2017-09-01T19:52:21.911Z,71.90
2017-09-01T19:54:53.213Z,71.40
2017-09-01T19:57:23.765Z,71.40
2017-09-01T19:59:54.331Z,70.90
2017-09-01T20:02:25.278Z,71.50
2017-09-01T20:04:56.526Z,71.10
2017-09-01T20:07:27.379Z,71.10
2017-09-01T20:09:58.676Z,71.50
2017-09-01T20:12:30.651Z,71.10
2017-09-01T20:15:01.345Z,71.10
2017-09-01T20:17:32.051Z,71.00
2017-09-01T20:20:03.291Z,71.00
2017-09-01T20:22:34.206Z,71.20
2017-09-01T20:25:10.564Z,71.10
2017-09-01T20:27:41.296Z,71.30
2017-09-01T20:30:11.817Z,71.40
2017-09-01T20:32:44.296Z,72.50
2017-09-01T20:35:15.318Z,72.50
2017-09-01T20:37:47.856Z,72.20
2017-09-01T20:40:18.473Z,72.20
2017-09-01T20:42:49.800Z,72.30
2017-09-01T20:45:21.364Z,72.20
2017-09-01T20:47:53.045Z,72.20
2017-09-01T20:50:24.751Z,72.50
2017-09-01T20:52:55.497Z,72.40
2017-09-01T20:55:28.305Z,72.30
2017-09-01T20:57:59.471Z,72.30
2017-09-01T21:00:30.282Z,72.50
2017-09-01T21:03:01.935Z,72.80
2017-09-01T21:05:34.414Z,72.70
2017-09-01T21:08:07.122Z,72.80
2017-09-01T21:10:39.309Z,72.70
2017-09-01T21:13:10.094Z,72.50
2017-09-01T21:15:42.593Z,72.80
2017-09-01T21:18:13.339Z,72.50
2017-09-01T21:20:46.272Z,72.50
2017-09-01T21:23:17.076Z,72.20
2017-09-01T21:25:48.163Z,72.00
2017-09-01T21:28:19.049Z,72.10
2017-09-01T21:30:50.670Z,72.00
2017-09-01T21:33:21.308Z,72.00
2017-09-01T21:35:52.407Z,72.20
2017-09-01T21:38:23.273Z,72.40
2017-09-01T21:40:54.404Z,72.40
2017-09-01T21:43:25.761Z,72.40
2017-09-01T21:45:58.031Z,72.80
2017-09-01T21:48:29.633Z,73.60
2017-09-01T21:51:06.541Z,72.90
2017-09-01T21:53:38.162Z,72.90
2017-09-01T21:56:09.779Z,72.90
2017-09-01T21:58:40.685Z,73.00
2017-09-01T22:01:20.804Z,73.40
2017-09-01T22:03:51.442Z,73.30
2017-09-01T22:06:23.667Z,73.50
2017-09-01T22:08:55.381Z,74.00
2017-09-01T22:11:26.476Z,74.20
2017-09-01T22:13:57.755Z,73.40
2017-09-01T22:16:28.311Z,73.30
2017-09-01T22:18:59.909Z,73.30
2017-09-01T22:21:31.383Z,73.30
2017-09-01T22:24:02.196Z,73.40
2017-09-01T22:26:34.142Z,73.50
2017-09-01T22:29:04.986Z,73.40
2017-09-01T22:31:36.232Z,73.60
2017-09-01T22:34:07.604Z,74.00
2017-09-01T22:36:40.466Z,73.60
2017-09-01T22:39:11.222Z,73.70
2017-09-01T22:41:42.065Z,73.80
2017-09-01T22:44:13.073Z,74.00
2017-09-01T22:46:43.662Z,74.10
2017-09-01T22:49:14.548Z,74.30
2017-09-01T22:51:45.686Z,74.20
2017-09-01T22:54:25.142Z,74.00
2017-09-01T22:56:56.538Z,75.00
2017-09-01T22:59:28.538Z,74.40
2017-09-01T23:02:00.297Z,74.30
2017-09-01T23:04:31.584Z,74.60
2017-09-01T23:07:02.598Z,74.50
2017-09-01T23:09:33.556Z,74.40
2017-09-01T23:12:04.297Z,74.80
2017-09-01T23:14:35.466Z,75.00
2017-09-01T23:17:06.396Z,75.10
2017-09-01T23:19:36.762Z,75.40
2017-09-01T23:22:07.406Z,75.30
2017-09-01T23:24:38.534Z,75.30
2017-09-01T23:27:09.169Z,75.20
2017-09-01T23:29:40.198Z,75.10
2017-09-01T23:32:10.821Z,75.40
2017-09-01T23:34:41.538Z,75.20
2017-09-01T23:37:12.635Z,75.30
2017-09-01T23:39:43.802Z,75.60
2017-09-01T23:42:14.851Z,75.70
2017-09-01T23:44:45.269Z,75.60
2017-09-01T23:47:16.478Z,75.60
2017-09-01T23:49:47.170Z,75.60
2017-09-01T23:52:17.980Z,75.90
2017-09-01T23:54:48.849Z,75.70
2017-09-01T23:57:19.753Z,75.90
2017-09-01T23:59:50.251Z,75.80
